DLH47L EDDH-EDDB
Flight info
| Callsign | DLH47L |
|---|---|
| Flight time | N/A |
| Altitude | 23000 |
| Route | RAMAR6G/33 RAMAR Z998 PITEN L619 VIBIS T209 OGBER |
| Aircraft | A321/M-SDE3FGHIRWY/LB1 |
Departure
| Time | 2026-05-05 15:51 |
|---|---|
| Airport | Hamburg Helmut Schmidt Airport (EDDH) |
Arrival
| Time | N/A |
|---|---|
| Airport | Berlin Brandenburg Airport (EDDB) |
| Time | Latitude | Longitude | Altitude | Speed | Heading |
|---|---|---|---|---|---|
| 2026-05-05 15:25 | 53.63105 | 10.00378 | 51 ft | 0 kts | 86° |
| 2026-05-05 15:43 | 53.63105 | 10.00357 | 51 ft | 4 kts | 88° |
| 2026-05-05 15:43 | 53.63105 | 10.00312 | 50 ft | 4 kts | 95° |
| 2026-05-05 15:44 | 53.63109 | 10.00268 | 47 ft | 4 kts | 104° |
| 2026-05-05 15:44 | 53.63118 | 10.00225 | 49 ft | 4 kts | 120° |
| 2026-05-05 15:44 | 53.63134 | 10.00193 | 47 ft | 4 kts | 159° |
| 2026-05-05 15:44 | 53.63142 | 10.00189 | 48 ft | 0 kts | 176° |
| 2026-05-05 15:46 | 53.63140 | 10.00189 | 47 ft | 1 kts | 176° |
| 2026-05-05 15:47 | 53.63126 | 10.00191 | 49 ft | 3 kts | 175° |
| 2026-05-05 15:47 | 53.63086 | 10.00187 | 51 ft | 11 kts | 193° |
| 2026-05-05 15:47 | 53.62996 | 10.00104 | 51 ft | 16 kts | 211° |
| 2026-05-05 15:47 | 53.62930 | 10.00018 | 50 ft | 10 kts | 234° |
| 2026-05-05 15:48 | 53.62900 | 9.99920 | 50 ft | 6 kts | 244° |
| 2026-05-05 15:48 | 53.62899 | 9.99917 | 50 ft | 0 kts | 244° |
| 2026-05-05 15:49 | 53.62897 | 9.99912 | 50 ft | 2 kts | 244° |
| 2026-05-05 15:49 | 53.62888 | 9.99881 | 49 ft | 5 kts | 243° |
| 2026-05-05 15:49 | 53.62864 | 9.99775 | 48 ft | 10 kts | 280° |
| 2026-05-05 15:49 | 53.62897 | 9.99718 | 50 ft | 0 kts | 332° |
| 2026-05-05 15:50 | 53.62925 | 9.99694 | 50 ft | 18 kts | 334° |
| 2026-05-05 15:50 | 53.63268 | 9.99400 | 51 ft | 94 kts | 333° |
| 2026-05-05 15:50 | 53.64063 | 9.98711 | 51 ft | 158 kts | 333° |
| 2026-05-05 15:51 | 53.65043 | 9.97863 | 741 ft | 156 kts | 335° |
| 2026-05-05 15:51 | 53.66016 | 9.97023 | 1463 ft | 160 kts | 337° |
| 2026-05-05 15:51 | 53.67076 | 9.96120 | 1821 ft | 183 kts | 336° |
| 2026-05-05 15:51 | 53.68292 | 9.95100 | 2230 ft | 205 kts | 340° |
| 2026-05-05 15:52 | 53.69704 | 9.94659 | 2989 ft | 209 kts | 2° |
| 2026-05-05 15:52 | 53.71176 | 9.94672 | 3792 ft | 213 kts | 1° |
| 2026-05-05 15:52 | 53.72655 | 9.94895 | 4586 ft | 217 kts | 19° |
| 2026-05-05 15:52 | 53.73929 | 9.96323 | 5147 ft | 233 kts | 50° |
| 2026-05-05 15:53 | 53.74766 | 9.98826 | 5489 ft | 258 kts | 64° |
| 2026-05-05 15:53 | 53.75570 | 10.01647 | 5991 ft | 273 kts | 64° |
| 2026-05-05 15:53 | 53.76396 | 10.04581 | 6623 ft | 281 kts | 63° |
| 2026-05-05 15:53 | 53.77249 | 10.07599 | 7343 ft | 286 kts | 64° |
| 2026-05-05 15:54 | 53.78114 | 10.10645 | 8083 ft | 290 kts | 64° |
| 2026-05-05 15:54 | 53.79000 | 10.13744 | 8809 ft | 295 kts | 63° |
| 2026-05-05 15:54 | 53.79902 | 10.16888 | 9548 ft | 299 kts | 63° |
| 2026-05-05 15:54 | 53.80816 | 10.20087 | 10191 ft | 307 kts | 63° |
| 2026-05-05 15:55 | 53.81783 | 10.23459 | 10389 ft | 330 kts | 63° |
| 2026-05-05 15:55 | 53.82810 | 10.27033 | 10526 ft | 352 kts | 63° |
| 2026-05-05 15:55 | 53.83812 | 10.30914 | 10833 ft | 367 kts | 72° |
| 2026-05-05 15:55 | 53.84302 | 10.35176 | 11396 ft | 372 kts | 86° |
| 2026-05-05 15:56 | 53.84176 | 10.39562 | 12003 ft | 375 kts | 101° |
| 2026-05-05 15:56 | 53.83606 | 10.43900 | 12638 ft | 378 kts | 104° |
| 2026-05-05 15:56 | 53.83009 | 10.48262 | 13272 ft | 382 kts | 104° |
| 2026-05-05 15:56 | 53.82405 | 10.52667 | 13892 ft | 386 kts | 104° |
| 2026-05-05 15:57 | 53.81796 | 10.57114 | 14439 ft | 390 kts | 104° |
| 2026-05-05 15:57 | 53.81178 | 10.61610 | 14964 ft | 394 kts | 104° |
| 2026-05-05 15:57 | 53.80544 | 10.66152 | 15488 ft | 399 kts | 106° |
| 2026-05-05 15:57 | 53.79596 | 10.70569 | 15997 ft | 401 kts | 117° |
| 2026-05-05 15:58 | 53.78209 | 10.74659 | 16513 ft | 403 kts | 125° |
| 2026-05-05 15:58 | 53.76704 | 10.78690 | 17044 ft | 407 kts | 125° |
| 2026-05-05 15:58 | 53.75188 | 10.82764 | 17569 ft | 411 kts | 124° |